createdAt,value
2023-04-02T00:02:32.395Z,100723.44
2023-04-02T00:05:31.196Z,100737.66
2023-04-02T00:08:03.193Z,100735.00
2023-04-02T00:10:33.212Z,100751.84
2023-04-02T00:13:07.304Z,100750.97
2023-04-02T00:15:35.773Z,100746.50
2023-04-02T00:18:05.042Z,100753.63
2023-04-02T00:20:38.593Z,100767.78
2023-04-02T00:23:08.144Z,100769.53
2023-04-02T00:25:42.812Z,100764.22
2023-04-02T00:28:13.523Z,100786.38
2023-04-02T00:30:49.172Z,100772.16
2023-04-02T00:33:19.467Z,100781.91
2023-04-02T00:35:48.278Z,100787.22
2023-04-02T00:38:23.813Z,100800.59
2023-04-02T00:40:53.730Z,100798.81
2023-04-02T00:43:22.837Z,100808.53
2023-04-02T00:45:56.281Z,100809.44
2023-04-02T00:48:42.145Z,100812.97
2023-04-02T00:51:15.560Z,100815.63
2023-04-02T00:53:47.700Z,100821.81
2023-04-02T00:56:22.019Z,100822.66
2023-04-02T00:58:54.053Z,100830.66
2023-04-02T01:01:25.344Z,100841.22
2023-04-02T01:03:59.157Z,100841.22
2023-04-02T01:06:31.964Z,100840.38
2023-04-02T01:09:13.614Z,100855.41
2023-04-02T01:12:15.115Z,100861.59
2023-04-02T01:14:50.388Z,100861.50
2023-04-02T01:17:33.810Z,100869.53
2023-04-02T01:20:40.203Z,100876.59
2023-04-02T01:23:13.380Z,100880.00
2023-04-02T01:25:49.325Z,100872.06
2023-04-02T01:28:21.617Z,100880.09
2023-04-02T01:30:53.887Z,100882.75
2023-04-02T01:33:23.458Z,100886.31
2023-04-02T01:35:57.561Z,100891.63
2023-04-02T01:38:31.978Z,100893.41
2023-04-02T01:41:05.060Z,100899.66
2023-04-02T01:43:40.087Z,100901.38
2023-04-02T01:46:26.708Z,100908.41
2023-04-02T01:48:55.396Z,100916.44
2023-04-02T01:51:32.201Z,100916.41
2023-04-02T01:54:01.997Z,100915.53
2023-04-02T01:56:31.368Z,100921.81
2023-04-02T01:59:01.289Z,100931.59
2023-04-02T02:01:36.798Z,100936.91
2023-04-02T02:04:04.923Z,100955.53
2023-04-02T02:06:32.947Z,100957.25
2023-04-02T02:09:04.530Z,100956.31
2023-04-02T02:11:36.409Z,100958.00
2023-04-02T02:14:12.766Z,100982.63
2023-04-02T02:16:43.143Z,100961.41
2023-04-02T02:19:22.675Z,100978.16
2023-04-02T02:21:52.683Z,100986.09
2023-04-02T02:24:22.841Z,100979.84
2023-04-02T02:27:05.717Z,100983.56
2023-04-02T02:29:38.621Z,100995.09
2023-04-02T02:32:10.991Z,100999.41
2023-04-02T02:34:41.541Z,101004.66
2023-04-02T02:37:15.927Z,101010.91
2023-04-02T02:39:45.448Z,101016.38
2023-04-02T02:42:19.712Z,101017.28
2023-04-02T02:44:50.221Z,101022.59
2023-04-02T02:47:23.239Z,101023.53
2023-04-02T02:49:55.163Z,101028.81
2023-04-02T02:52:27.105Z,101034.09
2023-04-02T02:54:58.757Z,101041.13
2023-04-02T02:57:31.106Z,101044.53
2023-04-02T03:00:05.260Z,101046.19
2023-04-02T03:02:37.320Z,101052.44
2023-04-02T03:05:06.084Z,101060.22
2023-04-02T03:07:34.338Z,101070.88
2023-04-02T03:10:11.998Z,101072.66
2023-04-02T03:12:46.374Z,101080.75
2023-04-02T03:15:21.355Z,101079.91
2023-04-02T03:17:54.644Z,101084.41
2023-04-02T03:20:33.587Z,101087.03
2023-04-02T03:23:08.053Z,101100.28
2023-04-02T03:25:42.679Z,101103.84
2023-04-02T03:28:16.896Z,101104.75
2023-04-02T03:30:50.424Z,101107.28
2023-04-02T03:33:25.733Z,101118.72
2023-04-02T03:35:59.025Z,101132.03
2023-04-02T03:38:29.991Z,101132.84
2023-04-02T03:41:04.615Z,101138.97
2023-04-02T03:43:37.816Z,101144.25
2023-04-02T03:46:21.142Z,101151.38
2023-04-02T03:48:53.883Z,101155.69
2023-04-02T03:51:25.723Z,101161.88
2023-04-02T03:53:53.547Z,101180.22
2023-04-02T03:56:29.108Z,101169.63
2023-04-02T03:59:08.259Z,101183.81
2023-04-02T04:01:40.649Z,101186.44
2023-04-02T04:04:15.451Z,101187.28
2023-04-02T04:06:45.710Z,101192.66
2023-04-02T04:09:21.864Z,101198.66
2023-04-02T04:11:53.676Z,101209.38
2023-04-02T04:14:29.040Z,101221.75
2023-04-02T04:17:04.503Z,101225.97
2023-04-02T04:19:41.899Z,101232.16
2023-04-02T04:22:17.922Z,101238.56
2023-04-02T04:24:46.578Z,101243.03
2023-04-02T04:27:24.165Z,101256.25
2023-04-02T04:29:59.212Z,101249.09
2023-04-02T04:32:32.209Z,101256.16
2023-04-02T04:35:07.975Z,101255.16
2023-04-02T04:37:42.048Z,101256.97
2023-04-02T04:40:17.404Z,101279.88
2023-04-02T04:42:47.657Z,101280.50
2023-04-02T04:45:37.371Z,101288.56
2023-04-02T04:48:10.831Z,101294.75
2023-04-02T04:50:47.648Z,101306.34
2023-04-02T04:53:18.161Z,101313.31
2023-04-02T04:55:48.042Z,101316.00
2023-04-02T04:58:22.926Z,101323.84
2023-04-02T05:00:57.522Z,101323.75
2023-04-02T05:03:32.251Z,101332.56
2023-04-02T05:06:09.811Z,101343.00
2023-04-02T05:08:42.515Z,101347.50
2023-04-02T05:11:15.596Z,101343.31
2023-04-02T05:13:49.496Z,101352.91
2023-04-02T05:16:24.514Z,101360.06
2023-04-02T05:18:57.652Z,101371.31
2023-04-02T05:21:34.275Z,101377.34
2023-04-02T05:24:19.883Z,101381.47
2023-04-02T05:26:48.614Z,101381.59
2023-04-02T05:29:21.910Z,101390.25
2023-04-02T05:31:59.787Z,101401.78
2023-04-02T05:34:30.943Z,101398.94
2023-04-02T05:37:00.413Z,101418.06
2023-04-02T05:39:29.927Z,101417.16
2023-04-02T05:42:02.540Z,101417.13
2023-04-02T05:44:32.076Z,101422.47
2023-04-02T05:47:04.667Z,101433.91
2023-04-02T05:49:41.642Z,101440.06
2023-04-02T05:52:23.488Z,101452.34
2023-04-02T05:54:56.195Z,101450.66
2023-04-02T05:57:42.737Z,101455.13
2023-04-02T06:00:20.222Z,101461.34
2023-04-02T06:02:55.309Z,101470.47
2023-04-02T06:05:27.515Z,101469.66
2023-04-02T06:08:02.493Z,101485.66
2023-04-02T06:10:34.999Z,101488.50
2023-04-02T06:13:07.647Z,101491.81
2023-04-02T06:15:37.793Z,101495.28
2023-04-02T06:18:09.559Z,101501.31
2023-04-02T06:20:37.998Z,101512.66
2023-04-02T06:23:14.843Z,101516.72
2023-04-02T06:25:46.851Z,101522.09
2023-04-02T06:28:18.216Z,101531.94
2023-04-02T06:30:46.863Z,101540.28
2023-04-02T06:33:15.609Z,101537.72
2023-04-02T06:35:46.683Z,101552.53
2023-04-02T06:38:20.646Z,101557.13
2023-04-02T06:40:51.935Z,101555.44
2023-04-02T06:43:27.338Z,101559.63
2023-04-02T06:45:58.397Z,101564.78
2023-04-02T06:48:26.754Z,101562.97
2023-04-02T06:50:59.518Z,101584.28
2023-04-02T06:53:34.109Z,101570.59
2023-04-02T06:56:05.597Z,101585.66
2023-04-02T06:58:33.733Z,101576.28
2023-04-02T07:01:01.667Z,101591.72
2023-04-02T07:03:31.538Z,101595.13
2023-04-02T07:06:01.986Z,101604.38
2023-04-02T07:08:31.110Z,101617.09
2023-04-02T07:10:58.839Z,101622.31
2023-04-02T07:13:26.891Z,101629.41
2023-04-02T07:15:56.203Z,101640.72
2023-04-02T07:18:26.904Z,101636.00
2023-04-02T07:20:54.904Z,101646.63
2023-04-02T07:23:23.380Z,101658.41
2023-04-02T07:25:54.071Z,101656.44
2023-04-02T07:28:22.943Z,101652.25
2023-04-02T07:30:52.888Z,101664.59
2023-04-02T07:33:23.126Z,101671.75
2023-04-02T07:35:52.550Z,101673.41
2023-04-02T07:38:20.426Z,101669.84
2023-04-02T07:40:49.128Z,101672.25
2023-04-02T07:43:18.269Z,101682.91
2023-04-02T07:45:46.076Z,101692.94
2023-04-02T07:48:15.312Z,101694.13
2023-04-02T07:50:43.477Z,101695.97
2023-04-02T07:53:27.662Z,101703.91
2023-04-02T07:55:55.420Z,101711.66
2023-04-02T07:58:24.610Z,101711.56
2023-04-02T08:00:52.396Z,101707.94
2023-04-02T08:03:20.468Z,101719.44
2023-04-02T08:05:53.617Z,101724.97
2023-04-02T08:08:22.026Z,101725.75
2023-04-02T08:10:50.524Z,101727.75
2023-04-02T08:13:19.454Z,101738.78
2023-04-02T08:15:48.605Z,101734.44
2023-04-02T08:18:16.382Z,101739.91
2023-04-02T08:20:44.159Z,101744.53
2023-04-02T08:23:15.487Z,101745.81
2023-04-02T08:25:43.172Z,101760.75
2023-04-02T08:28:10.935Z,101763.63
2023-04-02T08:30:39.302Z,101777.56
2023-04-02T08:33:08.659Z,101776.13
2023-04-02T08:35:36.991Z,101789.34
2023-04-02T08:38:04.943Z,101784.19
2023-04-02T08:40:36.843Z,101785.19
2023-04-02T08:43:31.640Z,101792.69
2023-04-02T08:46:09.578Z,101795.03
2023-04-02T08:48:43.113Z,101801.25
2023-04-02T08:51:22.621Z,101808.66
2023-04-02T08:53:50.992Z,101806.75
2023-04-02T08:56:22.286Z,101805.38
2023-04-02T08:58:53.780Z,101802.63
2023-04-02T09:01:35.124Z,101820.81
2023-04-02T09:04:08.094Z,101824.66
2023-04-02T09:06:37.006Z,101832.22
2023-04-02T09:09:05.084Z,101828.09
2023-04-02T09:11:39.625Z,101836.63
2023-04-02T09:14:16.840Z,101849.09
2023-04-02T09:16:47.440Z,101855.97
2023-04-02T09:19:23.872Z,101861.22
2023-04-02T09:22:06.007Z,101866.47
2023-04-02T09:24:34.295Z,101865.03
2023-04-02T09:27:02.343Z,101862.50
2023-04-02T09:29:41.842Z,101887.28
2023-04-02T09:32:22.553Z,101891.06
2023-04-02T09:34:51.818Z,101907.41
2023-04-02T09:37:22.804Z,101894.78
2023-04-02T09:39:50.621Z,101906.50
2023-04-02T09:42:34.068Z,101913.56
2023-04-02T09:45:15.527Z,101902.75
2023-04-02T09:47:43.887Z,101918.31
2023-04-02T09:50:26.706Z,101919.25
2023-04-02T09:52:54.776Z,101915.09
2023-04-02T09:55:26.219Z,101929.34
2023-04-02T09:58:12.769Z,101931.28
2023-04-02T10:00:49.982Z,101930.09
2023-04-02T10:03:25.592Z,101939.91
2023-04-02T10:06:12.467Z,101942.72
2023-04-02T10:08:42.332Z,101952.28
2023-04-02T10:11:14.427Z,101949.72
2023-04-02T10:13:50.451Z,101947.31
2023-04-02T10:16:25.751Z,101956.28
2023-04-02T10:18:59.156Z,101960.88
2023-04-02T10:21:32.085Z,101970.00
2023-04-02T10:24:00.338Z,101978.34
2023-04-02T10:26:47.591Z,101984.19
2023-04-02T10:29:27.970Z,101984.44
2023-04-02T10:32:03.220Z,101971.91
2023-04-02T10:34:37.671Z,102002.66
2023-04-02T10:37:25.452Z,101991.47
2023-04-02T10:39:58.837Z,102009.84
2023-04-02T10:42:35.017Z,102009.91
2023-04-02T10:45:17.260Z,102015.31
2023-04-02T10:47:53.499Z,102023.16
2023-04-02T10:50:37.450Z,102027.75
2023-04-02T10:53:15.437Z,102037.72
2023-04-02T10:55:48.148Z,102035.38
2023-04-02T10:58:24.304Z,102041.56
2023-04-02T11:00:54.749Z,102054.19
2023-04-02T11:03:32.523Z,102054.00
2023-04-02T11:06:06.477Z,102054.41
2023-04-02T11:08:42.726Z,102053.53
2023-04-02T11:11:15.539Z,102061.88
2023-04-02T11:13:53.586Z,102062.53
2023-04-02T11:16:21.797Z,102063.97
2023-04-02T11:19:25.266Z,102070.22
2023-04-02T11:21:59.899Z,102077.56
2023-04-02T11:24:38.374Z,102074.44
2023-04-02T11:27:14.764Z,102075.25
2023-04-02T11:29:45.241Z,102076.28
2023-04-02T11:32:49.291Z,102082.13
2023-04-02T11:35:39.330Z,102083.16
2023-04-02T11:38:52.820Z,102084.63
2023-04-02T11:42:06.491Z,102091.16
2023-04-02T11:44:35.918Z,102093.94
2023-04-02T11:47:17.189Z,102098.31
2023-04-02T11:50:28.854Z,102092.91
2023-04-02T11:53:01.376Z,102101.63
2023-04-02T11:55:31.119Z,102106.91
2023-04-02T11:58:08.624Z,102099.47
2023-04-02T12:01:14.834Z,102111.09
2023-04-02T12:03:56.880Z,102111.78
2023-04-02T12:06:34.347Z,102119.31
2023-04-02T12:09:15.752Z,102116.84
2023-04-02T12:11:44.285Z,102131.25
2023-04-02T12:14:32.311Z,102127.47
2023-04-02T12:17:01.711Z,102139.91
2023-04-02T12:19:31.724Z,102144.75
2023-04-02T12:22:00.651Z,102138.50
2023-04-02T12:24:31.412Z,102154.88
2023-04-02T12:27:15.448Z,102152.97
2023-04-02T12:29:44.119Z,102151.88
2023-04-02T12:32:24.926Z,102154.78
2023-04-02T12:34:54.219Z,102168.81
2023-04-02T12:37:24.462Z,102164.78
2023-04-02T12:39:57.841Z,102162.63
2023-04-02T12:42:31.210Z,102166.34
2023-04-02T12:44:59.524Z,102169.59
2023-04-02T12:47:30.136Z,102175.88
2023-04-02T12:49:59.686Z,102173.44
2023-04-02T12:52:30.513Z,102175.47
2023-04-02T12:55:00.792Z,102178.47
2023-04-02T12:57:39.543Z,102173.19
2023-04-02T13:00:30.692Z,102176.56
2023-04-02T13:03:18.603Z,102184.09
2023-04-02T13:05:52.225Z,102183.28
2023-04-02T13:08:23.665Z,102187.59
2023-04-02T13:10:55.930Z,102184.16
2023-04-02T13:13:28.534Z,102191.16
2023-04-02T13:16:05.031Z,102186.03
2023-04-02T13:18:37.000Z,102199.16
2023-04-02T13:21:05.898Z,102197.03
2023-04-02T13:23:37.095Z,102194.13
2023-04-02T13:26:22.011Z,102185.94
2023-04-02T13:29:05.549Z,102205.47
2023-04-02T13:31:34.146Z,102198.66
2023-04-02T13:34:03.343Z,102197.09
2023-04-02T13:36:31.201Z,102196.72
2023-04-02T13:38:58.927Z,102190.88
2023-04-02T13:41:28.454Z,102194.63
2023-04-02T13:43:59.615Z,102187.81
2023-04-02T13:46:30.725Z,102180.25
2023-04-02T13:48:59.533Z,102182.50
2023-04-02T13:51:37.158Z,102203.97
2023-04-02T13:54:09.949Z,102208.28
2023-04-02T13:56:38.638Z,102200.34
2023-04-02T13:59:07.414Z,102205.16
2023-04-02T14:01:35.706Z,102204.47
2023-04-02T14:04:03.863Z,102213.09
2023-04-02T14:06:49.243Z,102205.47
2023-04-02T14:09:26.235Z,102217.06
2023-04-02T14:12:04.559Z,102210.94
2023-04-02T14:14:46.627Z,102203.31
2023-04-02T14:17:24.611Z,102208.31
2023-04-02T14:20:05.397Z,102201.53
2023-04-02T14:22:46.969Z,102209.38
2023-04-02T14:25:23.053Z,102211.94
2023-04-02T14:28:00.724Z,102199.84
2023-04-02T14:30:41.811Z,102203.41
2023-04-02T14:33:20.113Z,102210.59
2023-04-02T14:35:53.531Z,102215.88
2023-04-02T14:38:30.942Z,102209.81
2023-04-02T14:41:05.281Z,102213.44
2023-04-02T14:43:39.626Z,102209.00
2023-04-02T14:46:10.252Z,102223.53
2023-04-02T14:48:52.815Z,102216.53
2023-04-02T14:51:26.448Z,102226.47
2023-04-02T14:54:02.958Z,102227.91
2023-04-02T14:56:34.577Z,102235.94
2023-04-02T14:59:22.760Z,102245.53
2023-04-02T15:01:54.440Z,102248.91
2023-04-02T15:04:28.887Z,102249.94
2023-04-02T15:07:03.393Z,102248.28
2023-04-02T15:09:45.177Z,102253.69
2023-04-02T15:12:29.303Z,102252.06
2023-04-02T15:15:03.818Z,102257.47
2023-04-02T15:17:32.086Z,102259.19
2023-04-02T15:20:09.708Z,102263.97
2023-04-02T15:22:44.936Z,102266.31
2023-04-02T15:25:28.288Z,102262.69
2023-04-02T15:28:15.981Z,102262.81
2023-04-02T15:30:57.223Z,102271.91
2023-04-02T15:33:39.931Z,102278.19
2023-04-02T15:36:22.188Z,102274.94
2023-04-02T15:38:58.544Z,102263.72
2023-04-02T15:41:32.094Z,102273.84
2023-04-02T15:44:07.317Z,102277.59
2023-04-02T15:46:46.688Z,102272.16
2023-04-02T15:49:26.492Z,102278.78
2023-04-02T15:52:06.593Z,102289.19
2023-04-02T15:54:50.348Z,102288.56
2023-04-02T15:57:36.041Z,102304.09
2023-04-02T16:00:25.148Z,102301.47
2023-04-02T16:03:13.538Z,102301.63
2023-04-02T16:05:50.667Z,102302.72
2023-04-02T16:08:35.418Z,102301.22
2023-04-02T16:11:03.904Z,102306.66
2023-04-02T16:13:36.560Z,102303.88
2023-04-02T16:16:07.251Z,102314.72
2023-04-02T16:18:52.594Z,102314.91
2023-04-02T16:21:23.081Z,102313.38
2023-04-02T16:23:51.124Z,102320.31
2023-04-02T16:26:34.549Z,102338.44
2023-04-02T16:29:47.372Z,102325.44
2023-04-02T16:32:37.116Z,102345.53
2023-04-02T16:35:41.089Z,102336.66
2023-04-02T16:38:23.420Z,102344.56
2023-04-02T16:41:08.516Z,102349.03
2023-04-02T16:43:47.830Z,102348.91
2023-04-02T16:49:06.952Z,102357.28
2023-04-02T16:51:43.213Z,102368.81
2023-04-02T16:54:15.618Z,102357.91
2023-04-02T16:56:55.877Z,102378.16
2023-04-02T16:59:30.813Z,102383.06
2023-04-02T17:02:05.305Z,102384.69
2023-04-02T17:04:52.590Z,102379.34
2023-04-02T17:07:32.603Z,102392.50
2023-04-02T17:10:15.432Z,102411.03
2023-04-02T17:12:46.973Z,102412.78
2023-04-02T17:15:27.789Z,102417.06
2023-04-02T17:17:59.378Z,102417.13
2023-04-02T17:20:27.753Z,102417.06
2023-04-02T17:22:57.162Z,102420.50
2023-04-02T17:25:28.290Z,102415.03
2023-04-02T17:27:57.561Z,102421.13
2023-04-02T17:30:37.238Z,102426.41
2023-04-02T17:33:12.444Z,102437.00
2023-04-02T17:35:52.405Z,102438.63
2023-04-02T17:38:29.054Z,102443.97
2023-04-02T17:41:07.014Z,102448.34
2023-04-02T17:43:43.158Z,102446.69
2023-04-02T17:46:21.789Z,102447.16
2023-04-02T17:49:05.730Z,102451.66
2023-04-02T17:51:40.847Z,102454.72
2023-04-02T17:54:27.723Z,102455.59
2023-04-02T17:57:08.051Z,102460.97
2023-04-02T17:59:56.786Z,102463.72
2023-04-02T18:02:42.162Z,102466.16
2023-04-02T18:05:21.196Z,102467.13
2023-04-02T18:07:58.910Z,102469.69
2023-04-02T18:10:37.627Z,102473.06
2023-04-02T18:13:15.829Z,102473.13
2023-04-02T18:15:57.694Z,102480.16
2023-04-02T18:18:40.046Z,102480.94
2023-04-02T18:21:17.314Z,102480.94
2023-04-02T18:23:59.904Z,102481.78
2023-04-02T18:26:39.309Z,102492.00
2023-04-02T18:29:20.630Z,102491.13
2023-04-02T18:31:54.051Z,102502.63
2023-04-02T18:34:50.909Z,102504.31
2023-04-02T18:37:33.072Z,102496.19
2023-04-02T18:40:14.861Z,102502.41
2023-04-02T18:42:54.215Z,102502.31
2023-04-02T18:45:27.350Z,102511.13
2023-04-02T18:48:06.630Z,102515.31
2023-04-02T18:50:36.987Z,102512.47
2023-04-02T18:53:12.823Z,102525.78
2023-04-02T18:55:45.862Z,102526.47
2023-04-02T18:58:18.914Z,102527.19
2023-04-02T19:00:47.394Z,102534.84
2023-04-02T19:03:21.960Z,102541.78
2023-04-02T19:05:53.068Z,102542.59
2023-04-02T19:08:29.186Z,102548.69
2023-04-02T19:11:02.278Z,102548.56
2023-04-02T19:13:30.137Z,102547.56
2023-04-02T19:16:26.003Z,102556.44
2023-04-02T19:19:02.779Z,102552.88
2023-04-02T19:21:40.074Z,102558.16
2023-04-02T19:24:23.817Z,102558.09
2023-04-02T19:26:57.764Z,102572.97
2023-04-02T19:29:37.148Z,102571.97
2023-04-02T19:32:12.732Z,102577.19
2023-04-02T19:34:47.044Z,102578.75
2023-04-02T19:37:18.037Z,102581.16
2023-04-02T19:40:01.229Z,102581.91
2023-04-02T19:42:43.198Z,102586.00
2023-04-02T19:45:26.683Z,102586.63
2023-04-02T19:47:54.733Z,102583.69
2023-04-02T19:50:22.613Z,102590.75
2023-04-02T19:52:50.426Z,102586.22
2023-04-02T19:55:19.717Z,102590.47
2023-04-02T19:57:47.426Z,102598.03
2023-04-02T20:00:16.854Z,102606.69
2023-04-02T20:03:05.677Z,102608.50
2023-04-02T20:05:33.787Z,102603.19
2023-04-02T20:08:01.423Z,102611.16
2023-04-02T20:10:30.539Z,102612.78
2023-04-02T20:12:58.246Z,102611.00
2023-04-02T20:15:26.217Z,102614.50
2023-04-02T20:18:03.824Z,102619.78
2023-04-02T20:20:31.579Z,102613.44
2023-04-02T20:22:59.422Z,102626.44
2023-04-02T20:25:27.267Z,102623.72
2023-04-02T20:28:04.005Z,102618.41
2023-04-02T20:30:32.433Z,102625.47
2023-04-02T20:33:01.107Z,102628.94
2023-04-02T20:35:29.611Z,102631.44
2023-04-02T20:37:59.490Z,102645.44
2023-04-02T20:40:27.627Z,102642.47
2023-04-02T20:42:56.953Z,102638.28
2023-04-02T20:45:27.686Z,102645.84
2023-04-02T20:47:55.765Z,102642.41
2023-04-02T20:50:23.701Z,102652.38
2023-04-02T20:52:51.713Z,102663.84
2023-04-02T20:55:19.538Z,102665.59
2023-04-02T20:57:47.751Z,102656.41
2023-04-02T21:00:17.928Z,102660.44
2023-04-02T21:02:45.763Z,102666.97
2023-04-02T21:05:13.623Z,102674.13
2023-04-02T21:07:41.377Z,102673.06
2023-04-02T21:10:09.871Z,102679.19
2023-04-02T21:12:37.947Z,102684.50
2023-04-02T21:15:06.639Z,102684.63
2023-04-02T21:17:35.954Z,102680.25
2023-04-02T21:20:04.357Z,102684.50
2023-04-02T21:22:32.385Z,102682.72
2023-04-02T21:25:00.296Z,102687.91
2023-04-02T21:27:28.073Z,102693.91
2023-04-02T21:29:56.101Z,102693.66
2023-04-02T21:32:23.960Z,102695.19
2023-04-02T21:34:54.678Z,102691.47
2023-04-02T21:37:22.734Z,102682.50
2023-04-02T21:39:50.474Z,102686.38
2023-04-02T21:42:18.588Z,102691.53
2023-04-02T21:44:46.248Z,102694.31
2023-04-02T21:47:14.041Z,102691.59
2023-04-02T21:49:42.335Z,102699.56
2023-04-02T21:52:11.860Z,102693.09
2023-04-02T21:54:39.567Z,102695.75
2023-04-02T21:57:07.287Z,102698.41
2023-04-02T21:59:35.749Z,102695.75
2023-04-02T22:02:04.774Z,102695.81
2023-04-02T22:04:33.412Z,102698.41
2023-04-02T22:07:01.236Z,102698.41
2023-04-02T22:09:30.527Z,102698.34
2023-04-02T22:12:01.715Z,102700.91
2023-04-02T22:14:29.852Z,102711.34
2023-04-02T22:16:58.754Z,102713.94
2023-04-02T22:19:27.715Z,102714.78
2023-04-02T22:21:56.306Z,102714.72
2023-04-02T22:24:24.901Z,102714.63
2023-04-02T22:26:54.799Z,102718.81
2023-04-02T22:29:22.792Z,102722.31
2023-04-02T22:31:50.521Z,102722.22
2023-04-02T22:34:18.483Z,102728.22
2023-04-02T22:36:46.269Z,102725.44
2023-04-02T22:39:15.043Z,102722.59
2023-04-02T22:41:43.305Z,102724.16
2023-04-02T22:44:15.284Z,102730.31
2023-04-02T22:46:43.223Z,102730.16
2023-04-02T22:49:11.668Z,102726.53
2023-04-02T22:51:39.576Z,102725.56
2023-04-02T22:54:07.299Z,102732.44
2023-04-02T22:56:37.445Z,102736.78
2023-04-02T22:59:05.767Z,102734.06
2023-04-02T23:01:37.026Z,102735.63
2023-04-02T23:04:05.944Z,102746.16
2023-04-02T23:06:34.177Z,102742.50
2023-04-02T23:09:01.850Z,102739.72
2023-04-02T23:11:29.765Z,102741.34
2023-04-02T23:13:58.959Z,102744.59
2023-04-02T23:16:28.115Z,102746.25
2023-04-02T23:18:57.881Z,102753.97
2023-04-02T23:21:26.436Z,102752.84
2023-04-02T23:23:54.812Z,102749.22
2023-04-02T23:26:24.509Z,102749.13
2023-04-02T23:28:52.661Z,102752.53
2023-04-02T23:31:22.799Z,102754.88
2023-04-02T23:33:51.146Z,102754.81
2023-04-02T23:36:25.748Z,102752.91
2023-04-02T23:38:55.330Z,102753.81
2023-04-02T23:41:24.490Z,102763.50
2023-04-02T23:43:52.306Z,102756.31
2023-04-02T23:46:20.335Z,102759.69
2023-04-02T23:48:50.579Z,102757.84
2023-04-02T23:51:18.656Z,102765.69
2023-04-02T23:53:47.837Z,102769.09
2023-04-02T23:56:15.661Z,102770.50
2023-04-02T23:58:43.650Z,102769.53
